Harlem, Pennsylvania
Current Conditions -  °F | °C
As of 8:54 AM on Wednesday 26 Nov 2014 (Local Time) from KPTW Reporting Station
Heavy Rain Heavy Rain  
Wind Chill: 29°   Ceiling: 2900
Heat Index: 36°   Visibility: 3mi
Dew Point: 33°   Wind: 9mph
Humidity: 89%   Direction: 20°NNE
Pressure: 30.11"   Gusts: NA
Location:  40.3877°N, 75.5817°W
Report Text: KPTW 261354Z AUTO 02008KT 3SM +RA BR FEW008 OVC029 02/01 A3011 RMK AO2 SLP196 P0016 T00220006
Loading
Personal Weather Stations






























Interactive Weather Map New forecast layout! Learn more

10-Day Weather Forecast

Advertisements
Track Severe Weather on mobile